createdAt,value
2022-11-30T00:01:24.110Z,82.61
2022-11-30T00:03:56.032Z,83.09
2022-11-30T00:06:24.314Z,82.85
2022-11-30T00:08:58.651Z,82.87
2022-11-30T00:11:28.592Z,82.82
2022-11-30T00:13:55.957Z,82.47
2022-11-30T00:16:23.329Z,82.69
2022-11-30T00:18:51.190Z,83.08
2022-11-30T00:21:18.804Z,83.21
2022-11-30T00:23:47.658Z,83.24
2022-11-30T00:26:16.357Z,83.13
2022-11-30T00:28:45.318Z,82.58
2022-11-30T00:31:13.780Z,83.01
2022-11-30T00:33:41.169Z,82.71
2022-11-30T00:36:12.593Z,83.60
2022-11-30T00:38:40.214Z,83.40
2022-11-30T00:41:07.429Z,83.58
2022-11-30T00:43:34.747Z,83.49
2022-11-30T00:46:01.974Z,83.45
2022-11-30T00:48:29.510Z,83.26
2022-11-30T00:50:56.424Z,83.05
2022-11-30T00:53:23.856Z,83.11
2022-11-30T00:55:50.627Z,83.13
2022-11-30T00:58:17.847Z,82.80
2022-11-30T01:00:44.797Z,83.01
2022-11-30T01:03:13.026Z,83.13
2022-11-30T01:05:40.409Z,82.97
2022-11-30T01:08:09.625Z,82.72
2022-11-30T01:10:39.147Z,83.13
2022-11-30T01:13:07.241Z,83.37
2022-11-30T01:15:39.422Z,83.47
2022-11-30T01:18:07.554Z,83.09
2022-11-30T01:20:34.680Z,83.44
2022-11-30T01:23:01.820Z,83.32
2022-11-30T01:25:28.628Z,83.55
2022-11-30T01:27:55.725Z,83.55
2022-11-30T01:30:22.601Z,83.72
2022-11-30T01:32:49.836Z,83.55
2022-11-30T01:35:16.783Z,83.36
2022-11-30T01:37:43.990Z,83.56
2022-11-30T01:40:12.078Z,83.24
2022-11-30T01:42:46.155Z,83.38
2022-11-30T01:45:14.409Z,83.08
2022-11-30T01:47:46.478Z,82.99
2022-11-30T01:50:19.607Z,82.78
2022-11-30T01:52:50.978Z,82.74
2022-11-30T01:55:34.812Z,82.65
2022-11-30T01:58:12.231Z,82.88
2022-11-30T02:00:44.207Z,82.88
2022-11-30T02:03:17.767Z,82.91
2022-11-30T02:05:45.607Z,83.21
2022-11-30T02:08:13.243Z,82.97
2022-11-30T02:10:44.037Z,83.00
2022-11-30T02:13:37.649Z,82.94
2022-11-30T02:16:15.808Z,83.29
2022-11-30T02:18:55.894Z,83.45
2022-11-30T02:21:38.225Z,83.20
2022-11-30T02:24:21.916Z,83.60
2022-11-30T02:27:26.363Z,83.80
2022-11-30T02:30:01.995Z,83.63
2022-11-30T02:32:41.217Z,83.58
2022-11-30T02:35:10.486Z,83.58
2022-11-30T02:37:38.603Z,83.44
2022-11-30T02:40:10.769Z,83.38
2022-11-30T02:42:37.833Z,82.98
2022-11-30T02:45:08.030Z,82.99
2022-11-30T02:47:40.027Z,82.71
2022-11-30T02:50:27.926Z,82.14
2022-11-30T02:52:55.809Z,82.08
2022-11-30T02:55:23.376Z,82.30
2022-11-30T02:57:50.218Z,82.50
2022-11-30T03:00:17.847Z,82.46
2022-11-30T03:02:44.820Z,82.42
2022-11-30T03:05:12.114Z,82.37
2022-11-30T03:07:38.979Z,82.27
2022-11-30T03:10:06.994Z,82.76
2022-11-30T03:12:34.108Z,82.57
2022-11-30T03:15:01.374Z,82.41
2022-11-30T03:17:28.308Z,82.39
2022-11-30T03:19:55.385Z,82.30
2022-11-30T03:22:24.473Z,82.48
2022-11-30T03:24:51.673Z,82.18
2022-11-30T03:27:18.583Z,82.60
2022-11-30T03:29:46.821Z,82.42
2022-11-30T03:32:14.302Z,82.40
2022-11-30T03:34:41.483Z,82.85
2022-11-30T03:37:08.271Z,83.19
2022-11-30T03:39:35.341Z,83.27
2022-11-30T03:42:02.264Z,83.22
2022-11-30T03:44:30.026Z,83.28
2022-11-30T03:46:56.811Z,83.01
2022-11-30T03:49:24.085Z,82.96
2022-11-30T03:51:50.924Z,82.45
2022-11-30T03:54:18.203Z,82.83
2022-11-30T03:56:45.020Z,82.88
2022-11-30T03:59:12.095Z,82.62
2022-11-30T04:01:41.092Z,83.05
2022-11-30T04:04:08.263Z,82.64
2022-11-30T04:06:35.100Z,82.57
2022-11-30T04:09:03.012Z,82.57
2022-11-30T04:11:30.199Z,82.10
2022-11-30T04:13:57.316Z,82.30
2022-11-30T04:16:24.251Z,81.85
2022-11-30T04:18:51.457Z,82.29
2022-11-30T04:21:19.112Z,82.15
2022-11-30T04:23:46.275Z,82.63
2022-11-30T04:26:16.744Z,82.60
2022-11-30T04:28:44.759Z,82.50
2022-11-30T04:31:12.279Z,82.27
2022-11-30T04:33:39.504Z,82.25
2022-11-30T04:36:07.983Z,82.68
2022-11-30T04:38:53.689Z,82.27
2022-11-30T04:41:20.759Z,82.72
2022-11-30T04:43:47.527Z,82.19
2022-11-30T04:46:14.780Z,82.56
2022-11-30T04:48:41.669Z,82.46
2022-11-30T04:51:09.493Z,82.45
2022-11-30T04:53:37.636Z,81.89
2022-11-30T04:56:10.395Z,81.93
2022-11-30T04:58:39.041Z,82.16
2022-11-30T05:01:07.358Z,81.96
2022-11-30T05:03:34.377Z,82.11
2022-11-30T05:06:02.554Z,82.45
2022-11-30T05:08:29.434Z,82.45
2022-11-30T05:10:56.776Z,82.22
2022-11-30T05:13:25.808Z,82.30
2022-11-30T05:15:53.987Z,82.39
2022-11-30T05:18:21.104Z,82.63
2022-11-30T05:20:49.645Z,82.58
2022-11-30T05:23:17.597Z,83.06
2022-11-30T05:25:45.170Z,82.84
2022-11-30T05:28:12.414Z,82.80
2022-11-30T05:30:41.138Z,82.96
2022-11-30T05:33:08.377Z,82.84
2022-11-30T05:35:36.761Z,83.11
2022-11-30T05:38:04.429Z,82.72
2022-11-30T05:40:33.631Z,82.96
2022-11-30T05:43:02.088Z,82.97
2022-11-30T05:45:30.048Z,82.88
2022-11-30T05:47:56.910Z,83.03
2022-11-30T05:50:24.027Z,82.82
2022-11-30T05:52:57.993Z,82.90
2022-11-30T05:55:25.116Z,82.74
2022-11-30T05:57:52.330Z,83.00
2022-11-30T06:00:20.793Z,83.05
2022-11-30T06:02:47.973Z,82.88
2022-11-30T06:05:15.297Z,82.82
2022-11-30T06:07:42.167Z,82.63
2022-11-30T06:10:09.853Z,82.62
2022-11-30T06:12:36.699Z,82.67
2022-11-30T06:15:04.604Z,82.72
2022-11-30T06:17:31.470Z,82.56
2022-11-30T06:19:58.611Z,82.54
2022-11-30T06:22:25.613Z,82.69
2022-11-30T06:24:52.684Z,82.42
2022-11-30T06:27:19.521Z,82.97
2022-11-30T06:29:46.670Z,83.30
2022-11-30T06:32:13.666Z,83.41
2022-11-30T06:34:40.882Z,83.84
2022-11-30T06:37:07.737Z,84.04
2022-11-30T06:40:04.778Z,84.26
2022-11-30T06:42:21.718Z,84.03
2022-11-30T06:44:49.612Z,83.93
2022-11-30T06:47:16.603Z,83.35
2022-11-30T06:49:43.755Z,83.35
2022-11-30T06:52:10.865Z,83.41
2022-11-30T06:54:37.965Z,83.47
2022-11-30T06:57:04.835Z,83.45
2022-11-30T06:59:31.950Z,83.38
2022-11-30T07:02:01.657Z,83.74
2022-11-30T07:04:33.569Z,83.77
2022-11-30T07:07:00.409Z,83.52
2022-11-30T07:09:27.737Z,83.21
2022-11-30T07:11:54.468Z,83.78
2022-11-30T07:14:21.551Z,83.61
2022-11-30T07:16:48.826Z,83.61
2022-11-30T07:19:16.049Z,83.51
2022-11-30T07:21:42.949Z,83.26
2022-11-30T07:24:30.818Z,83.18
2022-11-30T07:27:00.369Z,83.09
2022-11-30T07:29:28.073Z,83.05
2022-11-30T07:31:55.178Z,83.05
2022-11-30T07:34:22.828Z,83.02
2022-11-30T07:36:49.896Z,83.21
2022-11-30T07:39:17.201Z,83.00
2022-11-30T07:41:44.397Z,82.72
2022-11-30T07:44:11.886Z,82.83
2022-11-30T07:46:39.296Z,82.62
2022-11-30T07:49:09.059Z,82.75
2022-11-30T07:51:36.653Z,82.75
2022-11-30T07:54:04.479Z,82.83
2022-11-30T07:56:31.643Z,82.66
2022-11-30T07:59:01.429Z,83.27
2022-11-30T08:01:31.545Z,82.76
2022-11-30T08:03:59.157Z,82.16
2022-11-30T08:06:29.091Z,82.55
2022-11-30T08:09:00.704Z,83.17
2022-11-30T08:11:30.658Z,82.44
2022-11-30T08:13:57.696Z,82.80
2022-11-30T08:16:27.292Z,83.41
2022-11-30T08:18:58.307Z,84.02
2022-11-30T08:21:25.703Z,83.49
2022-11-30T08:23:56.878Z,83.43
2022-11-30T08:26:26.950Z,84.03
2022-11-30T08:28:55.148Z,84.13
2022-11-30T08:31:31.736Z,83.71
2022-11-30T08:34:08.085Z,84.07
2022-11-30T08:36:35.181Z,84.25
2022-11-30T08:39:05.265Z,83.59
2022-11-30T08:41:33.624Z,84.06
2022-11-30T08:44:01.669Z,83.88
2022-11-30T08:49:24.710Z,83.52
2022-11-30T08:54:47.596Z,84.15
2022-11-30T08:57:21.314Z,84.22
2022-11-30T08:59:48.800Z,83.77
2022-11-30T09:02:18.859Z,84.26
2022-11-30T09:04:49.749Z,84.23
2022-11-30T09:07:16.728Z,83.98
2022-11-30T09:09:44.046Z,84.07
2022-11-30T09:12:11.371Z,83.96
2022-11-30T09:14:38.472Z,83.82
2022-11-30T09:17:05.466Z,84.18
2022-11-30T09:19:33.096Z,84.70
2022-11-30T09:22:00.588Z,84.98
2022-11-30T09:24:27.861Z,85.02
2022-11-30T09:26:56.920Z,84.92
2022-11-30T09:29:24.272Z,84.27
2022-11-30T09:31:51.089Z,84.48
2022-11-30T09:34:18.408Z,84.64
2022-11-30T09:36:45.332Z,84.42
2022-11-30T09:39:13.311Z,84.48
2022-11-30T09:42:05.077Z,84.82
2022-11-30T09:44:38.108Z,84.82
2022-11-30T09:47:08.214Z,84.81
2022-11-30T09:49:39.705Z,84.96
2022-11-30T09:52:31.013Z,85.04
2022-11-30T09:54:59.821Z,85.11
2022-11-30T09:57:48.259Z,84.51
2022-11-30T10:00:19.236Z,84.29
2022-11-30T10:02:46.906Z,84.92
2022-11-30T10:05:21.143Z,84.54
2022-11-30T10:08:10.450Z,85.32
2022-11-30T10:10:45.285Z,85.42
2022-11-30T10:13:42.421Z,85.16
2022-11-30T10:16:27.787Z,84.87
2022-11-30T10:19:06.228Z,85.06
2022-11-30T10:21:42.972Z,84.91
2022-11-30T10:24:28.455Z,85.11
2022-11-30T10:26:57.905Z,84.66
2022-11-30T10:29:31.987Z,85.03
2022-11-30T10:32:01.324Z,84.90
2022-11-30T10:34:34.887Z,84.61
2022-11-30T10:37:17.045Z,84.48
2022-11-30T10:40:05.599Z,85.32
2022-11-30T10:42:46.639Z,84.88
2022-11-30T10:45:17.728Z,85.10
2022-11-30T10:48:01.994Z,85.28
2022-11-30T10:50:30.989Z,85.25
2022-11-30T10:53:00.575Z,85.15
2022-11-30T10:55:31.535Z,85.19
2022-11-30T10:58:07.422Z,85.97
2022-11-30T11:00:34.401Z,85.41
2022-11-30T11:03:01.561Z,85.47
2022-11-30T11:05:30.882Z,85.56
2022-11-30T11:08:17.817Z,85.62
2022-11-30T11:10:51.546Z,85.50
2022-11-30T11:13:35.036Z,86.04
2022-11-30T11:16:03.783Z,86.69
2022-11-30T11:18:32.848Z,85.83
2022-11-30T11:21:16.357Z,86.47
2022-11-30T11:23:45.427Z,86.04
2022-11-30T11:26:25.173Z,86.93
2022-11-30T11:28:54.606Z,87.14
2022-11-30T11:31:49.134Z,87.06
2022-11-30T11:34:34.474Z,86.35
2022-11-30T11:37:29.021Z,86.38
2022-11-30T11:39:56.181Z,86.84
2022-11-30T11:42:23.892Z,86.62
2022-11-30T11:44:55.098Z,86.74
2022-11-30T11:47:43.698Z,86.44
2022-11-30T11:51:05.016Z,87.26
2022-11-30T11:53:39.382Z,87.60
2022-11-30T11:56:32.250Z,87.84
2022-11-30T11:59:06.893Z,88.01
2022-11-30T12:01:49.640Z,88.33
2022-11-30T12:04:53.778Z,88.77
2022-11-30T12:07:36.584Z,88.82
2022-11-30T12:10:50.722Z,88.50
2022-11-30T12:13:17.144Z,88.68
2022-11-30T12:16:08.608Z,88.37
2022-11-30T12:18:41.704Z,88.72
2022-11-30T12:21:15.815Z,88.88
2022-11-30T12:24:19.188Z,89.10
2022-11-30T12:27:17.851Z,88.58
2022-11-30T12:30:04.077Z,89.28
2022-11-30T12:32:56.126Z,88.94
2022-11-30T12:35:27.182Z,88.91
2022-11-30T12:38:11.180Z,88.91
2022-11-30T12:41:05.773Z,89.65
2022-11-30T12:43:56.426Z,89.34
2022-11-30T12:46:32.869Z,89.30
2022-11-30T12:49:13.661Z,89.21
2022-11-30T12:51:52.337Z,89.35
2022-11-30T12:54:33.423Z,88.97
2022-11-30T12:57:29.167Z,88.83
2022-11-30T13:00:20.522Z,88.46
2022-11-30T13:02:56.987Z,88.86
2022-11-30T13:05:39.610Z,87.85
2022-11-30T13:08:26.365Z,87.65
2022-11-30T13:11:11.352Z,88.16
2022-11-30T13:13:49.250Z,88.58
2022-11-30T13:16:16.197Z,88.56
2022-11-30T13:18:43.652Z,88.12
2022-11-30T13:21:24.366Z,87.75
2022-11-30T13:24:10.515Z,86.96
2022-11-30T13:26:42.362Z,87.13
2022-11-30T13:29:20.727Z,86.74
2022-11-30T13:32:33.796Z,86.74
2022-11-30T13:35:29.518Z,86.92
2022-11-30T13:38:35.231Z,86.86
2022-11-30T13:41:01.027Z,87.21
2022-11-30T13:43:48.789Z,86.74
2022-11-30T13:46:21.074Z,86.69
2022-11-30T13:48:48.586Z,87.03
2022-11-30T13:51:36.870Z,87.51
2022-11-30T13:54:46.587Z,87.44
2022-11-30T13:57:29.434Z,87.09
2022-11-30T13:59:58.520Z,86.62
2022-11-30T14:02:32.948Z,86.61
2022-11-30T14:05:19.031Z,85.91
2022-11-30T14:08:07.715Z,85.67
2022-11-30T14:10:37.787Z,86.14
2022-11-30T14:13:29.184Z,85.50
2022-11-30T14:16:01.423Z,85.52
2022-11-30T14:18:40.478Z,86.02
2022-11-30T14:21:29.374Z,86.54
2022-11-30T14:24:07.801Z,86.36
2022-11-30T14:26:43.861Z,86.52
2022-11-30T14:29:19.070Z,86.30
2022-11-30T14:32:06.426Z,86.06
2022-11-30T14:34:44.282Z,85.91
2022-11-30T14:37:27.056Z,85.09
2022-11-30T14:39:56.710Z,85.29
2022-11-30T14:42:26.350Z,85.48
2022-11-30T14:44:55.133Z,85.28
2022-11-30T14:47:34.516Z,85.41
2022-11-30T14:50:05.913Z,85.23
2022-11-30T14:52:46.389Z,84.90
2022-11-30T14:55:25.817Z,84.18
2022-11-30T14:58:10.923Z,84.56
2022-11-30T15:00:41.009Z,84.93
2022-11-30T15:03:20.689Z,84.59
2022-11-30T15:05:54.816Z,84.46
2022-11-30T15:08:23.144Z,84.17
2022-11-30T15:10:50.873Z,84.63
2022-11-30T15:13:20.386Z,84.54
2022-11-30T15:15:55.773Z,84.10
2022-11-30T15:18:24.890Z,84.29
2022-11-30T15:23:32.166Z,84.02
2022-11-30T15:26:03.449Z,83.88
2022-11-30T15:28:41.050Z,83.79
2022-11-30T15:31:14.603Z,84.06
2022-11-30T15:33:45.746Z,84.69
2022-11-30T15:36:28.013Z,84.96
2022-11-30T15:39:03.464Z,85.12
2022-11-30T15:41:31.874Z,85.31
2022-11-30T15:43:59.997Z,85.64
2022-11-30T15:47:00.857Z,85.78
2022-11-30T15:49:33.313Z,85.53
2022-11-30T15:52:16.225Z,85.84
2022-11-30T15:54:58.933Z,85.61
2022-11-30T15:57:27.539Z,85.95
2022-11-30T16:00:23.732Z,85.99
2022-11-30T16:03:10.754Z,85.72
2022-11-30T16:05:39.360Z,86.07
2022-11-30T16:08:16.735Z,85.70
2022-11-30T16:10:44.130Z,85.86
2022-11-30T16:13:20.617Z,85.83
2022-11-30T16:15:49.831Z,85.42
2022-11-30T16:18:20.344Z,85.35
2022-11-30T16:20:57.441Z,85.53
2022-11-30T16:23:26.094Z,85.59
2022-11-30T16:25:53.862Z,85.82
2022-11-30T16:28:22.234Z,86.41
2022-11-30T16:30:49.965Z,86.40
2022-11-30T16:33:20.300Z,86.27
2022-11-30T16:35:53.898Z,86.20
2022-11-30T16:38:22.333Z,85.85
2022-11-30T16:40:49.461Z,86.12
2022-11-30T16:43:16.905Z,86.63
2022-11-30T16:45:46.949Z,86.48
2022-11-30T16:48:14.405Z,86.55
2022-11-30T16:50:41.762Z,86.80
2022-11-30T16:53:16.697Z,86.92
2022-11-30T16:55:43.816Z,86.55
2022-11-30T16:58:11.368Z,86.45
2022-11-30T17:00:40.175Z,86.70
2022-11-30T17:03:30.240Z,86.44
2022-11-30T17:05:57.227Z,86.65
2022-11-30T17:08:42.484Z,86.10
2022-11-30T17:11:17.633Z,85.27
2022-11-30T17:13:44.692Z,85.29
2022-11-30T17:16:12.304Z,85.48
2022-11-30T17:18:39.305Z,85.12
2022-11-30T17:21:06.964Z,85.43
2022-11-30T17:23:33.909Z,85.18
2022-11-30T17:26:01.395Z,85.45
2022-11-30T17:28:28.283Z,85.18
2022-11-30T17:30:55.679Z,85.47
2022-11-30T17:33:22.579Z,85.34
2022-11-30T17:35:50.706Z,85.29
2022-11-30T17:38:17.691Z,84.71
2022-11-30T17:40:45.296Z,84.87
2022-11-30T17:43:12.077Z,84.99
2022-11-30T17:45:40.318Z,85.45
2022-11-30T17:48:07.227Z,85.26
2022-11-30T17:50:34.424Z,85.28
2022-11-30T17:53:01.431Z,84.88
2022-11-30T17:55:28.603Z,84.75
2022-11-30T17:57:55.606Z,84.63
2022-11-30T18:00:23.451Z,84.63
2022-11-30T18:02:53.959Z,84.39
2022-11-30T18:05:21.681Z,83.58
2022-11-30T18:07:48.863Z,83.88
2022-11-30T18:10:16.629Z,83.20
2022-11-30T18:12:43.439Z,83.27
2022-11-30T18:15:11.081Z,83.65
2022-11-30T18:17:37.829Z,83.50
2022-11-30T18:20:06.227Z,83.42
2022-11-30T18:22:33.609Z,83.41
2022-11-30T18:25:00.969Z,83.19
2022-11-30T18:27:28.377Z,83.71
2022-11-30T18:29:55.739Z,83.80
2022-11-30T18:32:22.626Z,82.97
2022-11-30T18:34:50.159Z,83.26
2022-11-30T18:37:17.295Z,82.66
2022-11-30T18:39:44.494Z,83.08
2022-11-30T18:42:11.519Z,82.95
2022-11-30T18:44:38.839Z,82.94
2022-11-30T18:47:05.788Z,83.08
2022-11-30T18:49:32.866Z,82.99
2022-11-30T18:51:59.987Z,82.64
2022-11-30T18:54:27.204Z,82.73
2022-11-30T18:56:54.230Z,82.75
2022-11-30T18:59:21.517Z,82.80
2022-11-30T19:01:50.885Z,82.79
2022-11-30T19:04:18.131Z,82.58
2022-11-30T19:06:45.039Z,82.40
2022-11-30T19:09:14.481Z,82.53
2022-11-30T19:11:42.579Z,82.08
2022-11-30T19:14:13.348Z,82.16
2022-11-30T19:16:41.060Z,82.41
2022-11-30T19:19:10.353Z,81.87
2022-11-30T19:21:37.227Z,81.87
2022-11-30T19:24:04.830Z,82.21
2022-11-30T19:26:31.734Z,82.15
2022-11-30T19:28:59.203Z,82.31
2022-11-30T19:31:26.404Z,82.11
2022-11-30T19:33:55.590Z,81.95
2022-11-30T19:36:25.026Z,82.13
2022-11-30T19:38:52.919Z,81.67
2022-11-30T19:41:21.402Z,81.60
2022-11-30T19:44:01.069Z,82.00
2022-11-30T19:46:31.844Z,82.17
2022-11-30T19:49:01.457Z,82.13
2022-11-30T19:51:29.659Z,81.56
2022-11-30T19:53:57.707Z,82.19
2022-11-30T19:56:25.596Z,82.34
2022-11-30T19:58:53.611Z,81.92
2022-11-30T20:01:23.708Z,82.09
2022-11-30T20:03:56.204Z,82.11
2022-11-30T20:06:29.644Z,81.97
2022-11-30T20:08:57.371Z,82.03
2022-11-30T20:11:24.294Z,82.36
2022-11-30T20:13:51.930Z,81.88
2022-11-30T20:16:20.623Z,82.03
2022-11-30T20:18:57.266Z,82.28
2022-11-30T20:21:26.389Z,82.30
2022-11-30T20:23:58.312Z,82.72
2022-11-30T20:26:27.509Z,82.48
2022-11-30T20:28:58.614Z,82.28
2022-11-30T20:31:26.875Z,82.70
2022-11-30T20:33:56.486Z,82.50
2022-11-30T20:36:24.120Z,82.58
2022-11-30T20:38:51.409Z,83.17
2022-11-30T20:41:21.906Z,83.38
2022-11-30T20:43:49.951Z,83.22
2022-11-30T20:46:18.863Z,83.44
2022-11-30T20:48:46.808Z,83.55
2022-11-30T20:51:34.108Z,83.60
2022-11-30T20:54:03.899Z,83.46
2022-11-30T20:56:31.676Z,83.48
2022-11-30T20:59:03.601Z,83.28
2022-11-30T21:01:30.850Z,83.84
2022-11-30T21:03:59.656Z,83.52
2022-11-30T21:06:27.674Z,83.37
2022-11-30T21:08:54.862Z,83.95
2022-11-30T21:11:22.388Z,83.79
2022-11-30T21:13:50.842Z,84.00
2022-11-30T21:16:26.939Z,83.90
2022-11-30T21:18:55.840Z,84.21
2022-11-30T21:21:25.098Z,83.90
2022-11-30T21:23:52.491Z,84.24
2022-11-30T21:26:22.169Z,83.80
2022-11-30T21:28:53.219Z,83.88
2022-11-30T21:31:21.923Z,83.88
2022-11-30T21:33:53.269Z,83.83
2022-11-30T21:36:22.452Z,84.02
2022-11-30T21:39:00.847Z,84.02
2022-11-30T21:41:31.289Z,83.88
2022-11-30T21:43:58.392Z,84.14
2022-11-30T21:46:25.831Z,83.95
2022-11-30T21:48:53.144Z,84.26
2022-11-30T21:51:23.242Z,84.36
2022-11-30T21:53:53.702Z,84.44
2022-11-30T21:56:23.432Z,84.68
2022-11-30T21:58:51.384Z,84.47
2022-11-30T22:01:20.991Z,84.67
2022-11-30T22:03:48.380Z,84.32
2022-11-30T22:06:17.448Z,84.85
2022-11-30T22:08:45.708Z,84.18
2022-11-30T22:11:14.607Z,84.41
2022-11-30T22:13:41.899Z,84.35
2022-11-30T22:16:14.581Z,84.62
2022-11-30T22:18:43.847Z,84.87
2022-11-30T22:21:11.887Z,84.79
2022-11-30T22:23:41.545Z,84.79
2022-11-30T22:26:13.369Z,85.11
2022-11-30T22:28:45.750Z,84.69
2022-11-30T22:31:15.512Z,85.22
2022-11-30T22:33:43.899Z,84.79
2022-11-30T22:36:15.516Z,84.98
2022-11-30T22:38:43.660Z,85.16
2022-11-30T22:41:23.855Z,85.06
2022-11-30T22:43:53.049Z,85.02
2022-11-30T22:46:22.798Z,85.48
2022-11-30T22:48:50.833Z,85.24
2022-11-30T22:51:20.542Z,85.44
2022-11-30T22:53:49.016Z,85.49
2022-11-30T22:56:19.029Z,85.66
2022-11-30T22:58:47.610Z,85.50
2022-11-30T23:01:23.341Z,85.78
2022-11-30T23:03:53.543Z,86.37
2022-11-30T23:06:21.140Z,86.05
2022-11-30T23:08:49.712Z,86.05
2022-11-30T23:11:19.639Z,86.04
2022-11-30T23:13:47.091Z,86.27
2022-11-30T23:16:14.662Z,86.55
2022-11-30T23:18:48.462Z,86.76
2022-11-30T23:21:23.744Z,86.78
2022-11-30T23:23:51.094Z,87.13
2022-11-30T23:26:21.418Z,87.35
2022-11-30T23:28:50.828Z,87.35
2022-11-30T23:31:34.502Z,87.57
2022-11-30T23:34:05.594Z,87.84
2022-11-30T23:36:33.994Z,87.90
2022-11-30T23:39:07.323Z,87.81
2022-11-30T23:41:34.292Z,87.64
2022-11-30T23:44:01.879Z,87.97
2022-11-30T23:46:29.204Z,88.39
2022-11-30T23:48:56.514Z,88.41
2022-11-30T23:51:24.335Z,88.68
2022-11-30T23:53:51.669Z,88.69
2022-11-30T23:56:20.496Z,88.80
2022-11-30T23:58:48.293Z,88.97
